Flight Track Log - Related Links

Times and Time Zones

All times are in EDT time to prevent confusion due to time zone crossing. See the SWA3943 flight status page for this flight to view local times or setup timezone preferences in your user account.

Time Position Orientation Groundspeed Altitude Reporting Facility
EDT Latitude Longitude Course Direction KTS MPH feet Rate Location/Type
20:40 39.9942 -82.9092 273° West 172 198 1,300  Level Indianapolis Center
20:40 39.9958 -82.9475 273° West 166 191 2,900 2,300 Climbing Indianapolis Center
20:41 39.9969 -82.9653 275° West 185 213 3,600 3,529 Climbing Indianapolis Center
20:42 39.9975 -83.0606 270° West 232 267 7,900 3,836 Climbing Indianapolis Center
20:43 40.0003 -83.1425 273° West 229 264 11,400 2,585 Climbing Indianapolis Center
20:44 40.0006 -83.2472 270° West 290 334 13,200 2,390 Climbing Indianapolis Center
20:45 39.9808 -83.3569 257° West 327 376 16,300 2,361 Climbing Indianapolis Center
20:46 39.8939 -83.4272 212° Southwest 363 418 18,000 1,082 Climbing Indianapolis Center
20:47 39.8075 -83.4869 208° Southwest 374 430 18,500 1,525 Climbing Indianapolis Center
20:48 39.7089 -83.5433 204° Southwest 384 442 21,100 2,754 Climbing Indianapolis Center
20:49 39.5881 -83.6089 203° Southwest 399 459 24,100 2,311 Climbing Indianapolis Center
20:50 39.4861 -83.6664 204° Southwest 398 458 25,800 1,820 Climbing Indianapolis Center
20:51 39.3786 -83.7258 203° Southwest 411 473 27,800 2,390 Climbing Indianapolis Center
20:52 39.2747 -83.7808 202° Southwest 403 464 30,700 2,683 Climbing Indianapolis Center
20:53 39.1800 -83.8333 203° Southwest 370 426 33,300 1,525 Climbing Indianapolis Center
20:54 39.0822 -83.8839 202° Southwest 375 432 33,800 1,082 Climbing Indianapolis Center
20:55 38.9808 -83.9389 203° Southwest 389 448 35,500 1,033 Climbing Indianapolis Center
20:56 38.8808 -83.9931 203° Southwest 387 445 35,900 197 Climbing Indianapolis Center
20:57 38.7792 -84.0464 202° Southwest 392 451 35,900  Level Indianapolis Center
20:58 38.6783 -84.1003 203° Southwest 388 447 35,900 49 Level Indianapolis Center
20:59 38.5731 -84.1550 202° Southwest 390 449 36,000 49 Climbing Indianapolis Center
21:00 38.4686 -84.1947 197° South 403 464 36,000  Level Indianapolis Center
21:01 38.3553 -84.1914 179° South 409 471 36,000  Level Indianapolis Center
21:02 38.2467 -84.2319 196° South 407 468 36,000  Level Indianapolis Center
21:03 38.1319 -84.2331 180° South 416 479 36,000  Level Indianapolis Center
21:04 38.0125 -84.2014 168° South 436 502 36,000  Level Indianapolis Center
21:05 37.8928 -84.1506 161° South 453 521 36,000  Level Indianapolis Center
21:06 37.7781 -84.0733 152° Southeast 465 535 36,000 439 Level Indianapolis Center
21:07 37.6617 -83.9489 140° Southeast 467 537 36,900 492 Climbing Indianapolis Center
21:08 37.5958 -83.8036 120° Southeast 476 548 37,000 49 Climbing Indianapolis Center
21:09 37.5975 -83.6367 89° East 481 554 37,000  Level Indianapolis Center
21:10 37.6117 -83.4675 84° East 480 552 37,000 -49 Level Indianapolis Center
21:11 37.6386 -83.3042 78° East 478 550 36,900  Descending Indianapolis Center
21:12 37.6722 -83.1436 75° East 473 544 37,000 49 Climbing Indianapolis Center
21:13 37.6828 -82.9764 85° East 473 544 37,000  Level Indianapolis Center
21:14 37.6928 -82.8061 86° East 479 551 37,000  Level Indianapolis Center
21:15 37.7028 -82.6394 86° East 475 547 37,000  Level Indianapolis Center
21:16 37.7122 -82.4722 86° East 474 545 37,000  Level Indianapolis Center
21:17 37.7203 -82.3042 86° East 476 548 37,000  Level Indianapolis Center
21:18 37.7322 -82.1392 85° East 471 542 37,000  Level Indianapolis Center
21:19 37.7706 -81.9783 73° East 476 548 37,000  Level Indianapolis Center
21:20 37.8075 -81.8178 74° East 475 547 37,000  Level Indianapolis Center
21:21 37.8439 -81.6600 74° East 467 537 37,000  Level Indianapolis Center
21:23 37.9150 -81.3453 74° East 472 543 37,000  Level Indianapolis Center
21:24 37.9583 -81.1506 74° East 481 554 37,000  Level Indianapolis Center
21:25 37.9939 -80.9889 74° East 480 552 37,000  Level Indianapolis Center
21:26 38.0292 -80.8292 74° East 475 547 37,000  Level Indianapolis Center
21:27 38.0581 -80.7028 74° East 473 544 37,000  Level Washington Center
21:28 38.0942 -80.5417 74° East 473 544 37,000  Level Washington Center
21:29 38.1297 -80.3831 74° East 466 536 37,000  Level Washington Center
21:30 38.1653 -80.2217 74° East 471 542 37,000  Level Washington Center
21:31 38.1958 -80.0781 75° East 471 542 37,000  Level Washington Center
21:32 38.2308 -79.9164 75° East 471 542 37,000  Level Washington Center
21:33 38.2658 -79.7544 75° East 471 542 37,000 -350 Level Washington Center
21:34 38.3006 -79.5894 75° East 471 542 36,300 -1,750 Descending Washington Center
21:35 38.3331 -79.4297 75° East 471 542 33,500 -3,100 Descending Washington Center
21:36 38.3697 -79.2542 75° East 471 542 30,100 -2,750 Descending Washington Center
21:37 38.4036 -79.0997 74° East 466 536 28,000 -1,050 Descending Washington Center
21:38 38.4328 -78.9472 76° East 453 521 28,000  Level Washington Center
21:39 38.4581 -78.7867 79° East 448 516 28,000  Level Washington Center
21:40 38.4914 -78.6289 75° East 448 516 28,000  Level Washington Center
21:41 38.5247 -78.4683 75° East 453 521 28,000 -950 Level Washington Center
21:42 38.5533 -78.3128 77° East 453 521 26,100 -2,150 Descending Washington Center
21:43 38.5817 -78.1625 76° East 442 509 23,700 -2,350 Descending Washington Center
21:44 38.6117 -78.0175 75° East 426 490 21,400 -2,250 Descending Washington Center
21:45 38.6372 -77.8828 76° East 405 466 19,200 -1,200 Descending Washington Center
21:46 38.6456 -77.7661 85° East 383 441 19,000 -100 Descending Washington Center
21:47 38.6542 -77.6361 85° East 364 419 19,000 -500 Level Washington Center
21:48 38.6667 -77.5167 82° East 374 430 18,100 -1,611 Descending Potomac TRACON
21:49 38.6667 -77.3833 90° East 362 417 16,100 -1,105 Descending Potomac TRACON
21:50 38.6833 -77.2833 78° East 338 389 16,000 -1,100 Descending Potomac TRACON
21:51 38.6833 -77.1500 90° East 353 406 13,900 -1,905 Descending Potomac TRACON
21:52 38.6833 -77.0167 90° East 350 403 12,000 -1,632 Descending Potomac TRACON
21:53 38.7000 -76.9000 80° East 341 392 10,800 -1,250 Descending Potomac TRACON
21:54 38.7000 -76.7833 90° East 322 371 9,500 -1,000 Descending Potomac TRACON
21:55 38.7333 -76.6833 67° East 293 337 8,700 -1,200 Descending Potomac TRACON
21:56 38.7667 -76.6000 63° Northeast 293 337 7,100 -1,350 Descending Potomac TRACON
21:57 38.8333 -76.5333 38° Northeast 292 336 6,000 -947 Descending Potomac TRACON
21:58 38.9000 -76.5500 349° North 273 314 5,300 -526 Descending Potomac TRACON
21:59 38.9667 -76.6000 330° Northwest 290 334 5,000 -600 Descending Potomac TRACON
22:00 39.0000 -76.6667 303° West 265 305 4,100 -476 Descending Potomac TRACON
22:01 39.0500 -76.7500 308° West 218 251 4,000 -238 Descending Potomac TRACON
22:02 39.0667 -76.8167 288° West 183 211 3,600 -500 Descending Potomac TRACON
22:03 39.0833 -76.8667 293° West 190 219 3,000 -800 Descending Potomac TRACON
22:04 39.1500 -76.8667 360° North 229 264 2,000 -500 Descending Potomac TRACON
22:05 39.1833 -76.8333 38° Northeast 211 243 2,000 -400 Level Potomac TRACON
22:06 39.1833 -76.7667 90° East 184 212 1,200 -750 Descending Potomac TRACON
22:07 39.1833 -76.7000 90° East 140 161 500 -700 Descending Potomac TRACON
22:09 39.1667 -76.6667 62° Northeast  Level FlightAware Approximate
22:16 39.1754 -76.6683 62° Northeast  Level Estimated

Login

Don't have an account? Register now (free) for customized features, flight alerts, and more!